Time;durP1;ratioP1;P1;durP2;ratioP2;P2;SDS_P1;SDS_P2;PMS_P1;PMS_P2;Temp;Humidity;BMP_temperature;BMP_pressure;BME280_temperature;BME280_humidity;BME280_pressure;Samples;Min_cycle;Max_cycle;Signal;HPM_P1;HPM_P2
2023/07/19 00:00:17;;;;;;;25.98;11.60;;;;;;;-142.75;100.00;76156.94;5087826;28;20461;-61
2023/07/19 00:02:43;;;;;;;23.98;10.05;;;;;;;-142.75;100.00;76145.13;5087960;28;20024;-60
2023/07/19 00:05:09;;;;;;;22.33;10.10;;;;;;;-142.75;100.00;76133.31;5088060;28;20030;-60
2023/07/19 00:07:35;;;;;;;23.35;10.88;;;;;;;-142.75;100.00;76145.13;5088087;28;20114;-61
2023/07/19 00:10:00;;;;;;;25.35;12.13;;;;;;;-142.75;100.00;76149.06;5087556;28;20107;-61
2023/07/19 00:12:25;;;;;;;20.80;10.68;;;;;;;-142.75;100.00;76147.09;5088111;28;20443;-60
2023/07/19 00:14:51;;;;;;;20.80;10.43;;;;;;;-142.75;100.00;76147.09;5088221;28;20024;-61
2023/07/19 00:17:16;;;;;;;22.05;11.10;;;;;;;-142.75;100.00;76147.09;5087771;28;20067;-61
2023/07/19 00:19:41;;;;;;;22.83;9.35;;;;;;;-142.75;100.00;76141.19;5087395;28;20099;-61
2023/07/19 00:22:08;;;;;;;19.27;9.57;;;;;;;-142.75;100.00;76143.16;5088121;28;20085;-60
2023/07/19 00:24:33;;;;;;;22.80;10.23;;;;;;;-142.75;100.00;76131.34;5087724;28;20020;-61
2023/07/19 00:26:58;;;;;;;16.40;7.80;;;;;;;-142.75;100.00;76133.31;5086393;28;20548;-60
2023/07/19 00:29:24;;;;;;;15.93;6.95;;;;;;;-142.75;100.00;76145.13;5087410;28;20016;-61
2023/07/19 00:31:49;;;;;;;15.38;7.57;;;;;;;-142.75;100.00;76145.13;5087208;28;20020;-61
2023/07/19 00:34:15;;;;;;;17.40;8.13;;;;;;;-142.75;100.00;76149.06;5087512;28;20032;-61
2023/07/19 00:36:40;;;;;;;19.42;8.55;;;;;;;-142.75;100.00;76141.19;5087552;28;20016;-61
2023/07/19 00:39:05;;;;;;;18.90;8.15;;;;;;;-142.75;100.00;76139.22;5087234;28;20016;-61
2023/07/19 00:41:30;;;;;;;19.38;8.27;;;;;;;-142.75;100.00;76154.97;5087050;28;20048;-61
2023/07/19 00:43:56;;;;;;;15.13;6.65;;;;;;;-142.75;100.00;76154.97;5087816;28;20024;-61
2023/07/19 00:46:21;;;;;;;11.13;4.93;;;;;;;-142.75;100.00;76166.78;5086913;28;20028;-60
2023/07/19 00:48:47;;;;;;;10.35;3.97;;;;;;;-142.75;100.00;76184.50;5087195;28;20031;-61
2023/07/19 00:51:13;;;;;;;8.75;3.28;;;;;;;-142.75;100.00;76192.38;5087700;28;20020;-60
2023/07/19 00:53:39;;;;;;;9.48;3.25;;;;;;;-142.75;100.00;76188.44;5087092;28;20032;-61
2023/07/19 00:56:07;;;;;;;11.23;3.47;;;;;;;-142.75;100.00;76176.63;5087380;28;20399;-61
2023/07/19 00:58:33;;;;;;;5.40;2.53;;;;;;;-142.75;100.00;76176.63;5087117;28;20020;-61
2023/07/19 01:00:59;;;;;;;5.40;1.85;;;;;;;-142.75;100.00;76184.50;5086694;28;20125;-63
2023/07/19 01:03:24;;;;;;;6.13;2.10;;;;;;;-142.75;100.00;76180.56;5087212;28;20073;-61
2023/07/19 01:05:50;;;;;;;6.38;2.30;;;;;;;-142.75;100.00;76174.66;5086967;28;20032;-61
2023/07/19 01:08:18;;;;;;;7.68;1.95;;;;;;;-142.75;100.00;76168.75;5086931;28;20047;-61
2023/07/19 01:10:43;;;;;;;7.70;2.30;;;;;;;-142.75;100.00;76168.75;5086573;28;20418;-61
2023/07/19 01:13:11;;;;;;;8.23;2.30;;;;;;;-142.75;100.00;76147.09;5086793;28;20032;-60
2023/07/19 01:15:37;;;;;;;4.22;2.15;;;;;;;-142.75;100.00;76141.19;5086841;28;20053;-61
2023/07/19 01:18:03;;;;;;;7.53;2.55;;;;;;;-142.75;100.00;76135.28;5086676;28;20038;-61
2023/07/19 01:20:29;;;;;;;7.15;1.92;;;;;;;-142.75;100.00;76121.50;5086971;28;20020;-61
2023/07/19 01:22:55;;;;;;;3.33;1.90;;;;;;;-142.75;100.00;76105.75;5086687;28;20032;-60
2023/07/19 01:25:21;;;;;;;5.18;2.22;;;;;;;-142.75;100.00;76107.72;5086428;28;20038;-61
2023/07/19 01:27:46;;;;;;;13.18;2.22;;;;;;;-142.75;100.00;76097.88;5066489;28;20111;-60
2023/07/19 01:30:12;;;;;;;5.38;1.95;;;;;;;-142.75;100.00;76095.91;5066166;28;20017;-61
2023/07/19 01:32:38;;;;;;;4.50;1.40;;;;;;;-142.75;100.00;76117.56;5066590;28;20031;-59
2023/07/19 01:35:03;;;;;;;7.38;1.88;;;;;;;-142.75;100.00;76119.53;5066531;28;20031;-61
2023/07/19 01:37:29;;;;;;;7.03;1.90;;;;;;;-142.75;100.00;76121.50;5086437;28;20054;-58
2023/07/19 01:39:54;;;;;;;6.35;1.83;;;;;;;-142.75;100.00;76125.44;5074788;28;20422;-61
2023/07/19 01:42:20;;;;;;;7.38;1.67;;;;;;;-142.75;100.00;76133.31;5066243;28;20387;-61
2023/07/19 01:44:45;;;;;;;6.80;1.52;;;;;;;-142.75;100.00;76133.31;5066793;28;20041;-61
2023/07/19 01:47:10;;;;;;;4.45;1.95;;;;;;;-142.75;100.00;76129.38;5066411;28;20056;-61
2023/07/19 01:49:38;;;;;;;5.07;1.10;;;;;;;-142.75;100.00;76113.63;5065940;28;20074;-61
2023/07/19 01:52:04;;;;;;;4.65;1.80;;;;;;;-142.75;100.00;76117.56;5066863;28;20073;-60
2023/07/19 01:54:29;;;;;;;4.05;1.40;;;;;;;-142.75;100.00;76107.72;5066315;28;20024;-60
2023/07/19 01:56:55;;;;;;;3.72;1.33;;;;;;;-142.75;100.00;76111.66;5066288;28;20112;-62
2023/07/19 01:59:20;;;;;;;5.97;1.63;;;;;;;-142.75;100.00;76121.50;5065569;28;20025;-61
2023/07/19 02:01:45;;;;;;;5.15;1.55;;;;;;;-142.75;100.00;76133.31;5066143;28;20016;-61
2023/07/19 02:04:11;;;;;;;5.07;1.58;;;;;;;-142.75;100.00;76141.19;5066083;28;20493;-61
2023/07/19 02:06:36;;;;;;;4.53;1.33;;;;;;;-142.75;100.00;76137.25;5066308;28;20434;-61
2023/07/19 02:09:01;;;;;;;5.82;1.80;;;;;;;-142.75;100.00;76129.38;5066122;28;20056;-61
2023/07/19 02:11:27;;;;;;;6.63;1.90;;;;;;;-142.75;100.00;76129.38;5066270;28;20476;-61
2023/07/19 02:13:52;;;;;;;5.13;1.55;;;;;;;-142.75;100.00;76127.41;5066110;28;20107;-61
2023/07/19 02:16:17;;;;;;;4.13;1.55;;;;;;;-142.75;100.00;76131.34;5066265;28;20391;-61
2023/07/19 02:18:43;;;;;;;6.05;1.50;;;;;;;-142.75;100.00;76141.19;5066083;28;20052;-61
2023/07/19 02:21:08;;;;;;;5.03;1.48;;;;;;;-142.75;100.00;76137.25;5066196;28;20100;-61
2023/07/19 02:23:34;;;;;;;4.60;1.70;;;;;;;-142.75;100.00;76129.38;5066006;28;20047;-61
2023/07/19 02:26:00;;;;;;;6.32;2.00;;;;;;;-142.75;100.00;76127.41;5065909;28;20032;-58
2023/07/19 02:28:25;;;;;;;4.55;1.65;;;;;;;-142.75;100.00;76137.25;5065961;28;20533;-61
2023/07/19 02:30:50;;;;;;;7.18;1.90;;;;;;;-142.75;100.00;76137.25;5065578;28;20533;-61
2023/07/19 02:33:16;;;;;;;5.18;2.33;;;;;;;-142.75;100.00;76141.19;5065945;28;20020;-60
2023/07/19 02:35:42;;;;;;;5.13;1.67;;;;;;;-142.75;100.00;76154.97;5065955;28;20028;-60
2023/07/19 02:38:08;;;;;;;3.75;1.60;;;;;;;-142.75;100.00;76154.97;5065937;28;20025;-60
2023/07/19 02:40:33;;;;;;;7.07;1.60;;;;;;;-142.75;100.00;76149.06;5065215;28;20025;-61
2023/07/19 02:42:59;;;;;;;8.30;1.80;;;;;;;-142.75;100.00;76145.13;5065810;28;20081;-62
2023/07/19 02:45:24;;;;;;;4.38;1.40;;;;;;;-142.75;100.00;76131.34;5066446;28;20543;-60
2023/07/19 02:47:50;;;;;;;4.35;1.20;;;;;;;-142.75;100.00;76141.19;5066066;28;20112;-61
2023/07/19 02:50:19;;;;;;;5.38;1.30;;;;;;;-142.75;100.00;76133.31;5068679;28;20032;-61
2023/07/19 02:52:45;;;;;;;7.68;1.38;;;;;;;-142.75;100.00;76123.47;5069428;28;20529;-59
2023/07/19 02:55:10;;;;;;;4.40;1.35;;;;;;;-142.75;100.00;76101.81;5069399;28;20028;-61
2023/07/19 02:57:35;;;;;;;4.18;1.33;;;;;;;-142.75;100.00;76091.97;5069173;28;20024;-61
2023/07/19 03:00:01;;;;;;;7.22;1.85;;;;;;;-142.75;100.00;76090.00;5069144;28;20560;-61
2023/07/19 03:02:26;;;;;;;5.80;1.77;;;;;;;-142.75;100.00;76093.94;5069164;28;20021;-61
2023/07/19 03:04:51;;;;;;;4.93;1.33;;;;;;;-142.75;100.00;76090.00;5067681;28;20052;-61
2023/07/19 03:07:17;;;;;;;4.70;1.38;;;;;;;-142.75;100.00;76086.06;5069293;28;20052;-60
2023/07/19 03:09:42;;;;;;;3.30;1.45;;;;;;;-142.75;100.00;76090.00;5068802;28;20123;-60
2023/07/19 03:12:08;;;;;;;5.18;1.35;;;;;;;-142.75;100.00;76080.16;5068823;28;20060;-61
2023/07/19 03:14:33;;;;;;;6.32;1.35;;;;;;;-142.75;100.00;76086.06;5069160;28;20024;-59
2023/07/19 03:16:58;;;;;;;5.95;1.40;;;;;;;-142.75;100.00;76125.44;5069152;28;20559;-61
2023/07/19 03:19:24;;;;;;;6.55;1.75;;;;;;;-142.75;100.00;76113.63;5068864;28;20423;-61
2023/07/19 03:21:49;;;;;;;4.60;1.73;;;;;;;-142.75;100.00;76113.63;5078715;28;20110;-61
2023/07/19 03:24:15;;;;;;;10.65;2.63;;;;;;;-142.75;100.00;76099.84;5089557;28;20502;-61
2023/07/19 03:26:40;;;;;;;8.40;2.33;;;;;;;-142.75;100.00;76099.84;5088868;28;20602;-61
2023/07/19 03:29:05;;;;;;;6.03;3.00;;;;;;;-142.75;100.00;76105.75;5088407;28;20398;-61
2023/07/19 03:31:31;;;;;;;7.57;2.67;;;;;;;-142.75;100.00;76117.56;5088845;28;20130;-61
2023/07/19 03:33:56;;;;;;;5.68;2.05;;;;;;;-142.75;100.00;76113.63;5088917;28;20024;-61
2023/07/19 03:36:22;;;;;;;7.45;2.75;;;;;;;-142.75;100.00;76105.75;5088638;28;20020;-61
2023/07/19 03:38:47;;;;;;;5.95;2.45;;;;;;;-142.75;100.00;76105.75;5088576;28;20479;-61
2023/07/19 03:41:12;;;;;;;10.32;2.90;;;;;;;-142.75;100.00;76101.81;5087859;28;20475;-61
2023/07/19 03:43:38;;;;;;;6.47;1.98;;;;;;;-142.75;100.00;76090.00;5088340;28;20498;-61
2023/07/19 03:46:07;;;;;;;4.63;2.22;;;;;;;-142.75;100.00;76091.97;5088994;28;20153;-61
2023/07/19 03:48:34;;;;;;;7.50;2.30;;;;;;;-142.75;100.00;76091.97;5088192;28;20109;-61
2023/07/19 03:51:00;;;;;;;6.22;1.80;;;;;;;-142.75;100.00;76095.91;5088527;28;20028;-57
2023/07/19 03:53:26;;;;;;;4.07;1.98;;;;;;;-142.75;100.00;76097.88;5088373;28;20020;-61
2023/07/19 03:55:55;;;;;;;7.15;2.45;;;;;;;-142.75;100.00;76101.81;5088148;28;20048;-61
2023/07/19 03:58:24;;;;;;;7.30;1.92;;;;;;;-142.75;100.00;76093.94;5088350;28;20062;-61
2023/07/19 04:00:54;;;;;;;7.03;2.38;;;;;;;-142.75;100.00;76091.97;5087896;28;20021;-61
2023/07/19 04:03:20;;;;;;;6.68;2.10;;;;;;;-142.75;100.00;76088.03;5088085;28;20024;-61
2023/07/19 04:05:46;;;;;;;5.90;2.20;;;;;;;-142.75;100.00;76090.00;5087927;28;20027;-61
2023/07/19 04:08:14;;;;;;;6.97;1.83;;;;;;;-142.75;100.00;76080.16;5087779;28;20509;-60
2023/07/19 04:10:39;;;;;;;6.88;2.80;;;;;;;-142.75;100.00;76082.13;5087595;28;20059;-61
2023/07/19 04:13:04;;;;;;;7.10;2.33;;;;;;;-142.75;100.00;76078.19;5087853;28;20024;-61
2023/07/19 04:15:30;;;;;;;6.95;2.78;;;;;;;-142.75;100.00;76082.13;5088475;28;20016;-61
2023/07/19 04:17:55;;;;;;;3.45;1.75;;;;;;;-142.75;100.00;76078.19;5083760;28;20029;-61
2023/07/19 04:20:22;;;;;;;5.15;1.95;;;;;;;-142.75;100.00;76076.22;5068253;28;20036;-61
2023/07/19 04:22:48;;;;;;;7.07;2.83;;;;;;;-142.75;100.00;76074.25;5067696;28;20024;-61
2023/07/19 04:25:13;;;;;;;9.07;2.67;;;;;;;-142.75;100.00;76072.31;5067369;28;20137;-61
2023/07/19 04:27:39;;;;;;;7.10;2.17;;;;;;;-142.75;100.00;76070.34;5067321;28;20031;-61
2023/07/19 04:30:05;;;;;;;5.18;2.20;;;;;;;-142.75;100.00;76064.44;5067238;28;20028;-61
2023/07/19 04:32:30;;;;;;;3.83;1.52;;;;;;;-142.75;100.00;76064.44;5067316;28;20078;-61
2023/07/19 04:34:56;;;;;;;5.63;1.70;;;;;;;-142.75;100.00;76074.25;5067680;28;20483;-61
2023/07/19 04:37:21;;;;;;;7.03;1.67;;;;;;;-142.75;100.00;76072.31;5067351;28;20062;-61
2023/07/19 04:39:46;;;;;;;4.63;2.15;;;;;;;-142.75;100.00;76078.19;5066935;28;20506;-60
2023/07/19 04:42:12;;;;;;;6.95;2.25;;;;;;;-142.75;100.00;76090.00;5067193;28;20016;-61
2023/07/19 04:44:38;;;;;;;5.88;2.33;;;;;;;-142.75;100.00;76111.66;5074489;28;20501;-61
2023/07/19 04:47:05;;;;;;;6.18;2.58;;;;;;;-142.75;100.00;76121.50;5087345;28;20020;-61
2023/07/19 04:49:31;;;;;;;4.07;2.25;;;;;;;-142.75;100.00;76105.75;5086866;28;20024;-61
2023/07/19 04:51:56;;;;;;;8.23;2.80;;;;;;;-142.75;100.00;76093.94;5087726;28;20081;-60
2023/07/19 04:54:22;;;;;;;7.22;3.10;;;;;;;-142.75;100.00;76093.94;5086908;28;20032;-61
2023/07/19 04:56:47;;;;;;;9.50;2.80;;;;;;;-142.75;100.00;76080.16;5086920;28;20024;-61
2023/07/19 04:59:13;;;;;;;7.30;2.90;;;;;;;-142.75;100.00;76070.34;5086854;28;20028;-61
2023/07/19 05:01:38;;;;;;;5.10;2.80;;;;;;;-142.75;100.00;76064.44;5078267;28;20028;-60
2023/07/19 05:04:03;;;;;;;7.63;2.55;;;;;;;-142.75;100.00;76064.44;5068862;28;20048;-60
2023/07/19 05:06:29;;;;;;;7.00;3.33;;;;;;;-142.75;100.00;76066.41;5067544;28;20059;-61
2023/07/19 05:08:54;;;;;;;10.82;2.83;;;;;;;-142.75;100.00;76066.41;5066627;28;20020;-60
2023/07/19 05:11:20;;;;;;;4.93;2.17;;;;;;;-142.75;100.00;76072.31;5066115;28;20029;-61
2023/07/19 05:13:46;;;;;;;9.35;2.90;;;;;;;-142.75;100.00;76070.34;5066854;28;20031;-61
2023/07/19 05:16:11;;;;;;;4.00;2.40;;;;;;;-142.75;100.00;76074.25;5067147;28;20016;-61
2023/07/19 05:18:37;;;;;;;5.75;2.20;;;;;;;-142.75;100.00;76074.25;5066682;28;20044;-61
2023/07/19 05:21:02;;;;;;;6.35;2.17;;;;;;;-142.75;100.00;76056.56;5066718;28;20030;-60
2023/07/19 05:23:27;;;;;;;7.30;2.33;;;;;;;-142.75;100.00;76050.66;5066879;28;20074;-61
2023/07/19 05:25:53;;;;;;;7.88;2.70;;;;;;;-142.75;100.00;76029.00;5066722;28;20020;-60
2023/07/19 05:28:20;;;;;;;6.07;2.05;;;;;;;-142.75;100.00;76007.34;5066532;28;20581;-60
2023/07/19 05:30:45;;;;;;;5.05;1.83;;;;;;;-142.75;100.00;75989.63;5066242;28;20422;-61
2023/07/19 05:33:11;;;;;;;6.35;2.08;;;;;;;-142.75;100.00;75975.84;5066291;28;20021;-61
2023/07/19 05:35:37;;;;;;;4.95;1.70;;;;;;;-142.75;100.00;75999.47;5066431;28;20063;-60
2023/07/19 05:38:03;;;;;;;7.18;2.33;;;;;;;-142.75;100.00;75977.81;5066093;28;20531;-61
2023/07/19 05:40:31;;;;;;;3.50;1.90;;;;;;;-142.75;100.00;75967.97;5065825;28;20067;-61
2023/07/19 05:42:56;;;;;;;8.40;2.17;;;;;;;-142.75;100.00;75993.56;5066382;28;20028;-60
2023/07/19 05:45:22;;;;;;;4.38;2.03;;;;;;;-142.75;100.00;75987.66;5066977;28;20024;-61
2023/07/19 05:47:47;;;;;;;6.60;2.30;;;;;;;-142.75;100.00;75993.56;5066168;28;20024;-61
2023/07/19 05:50:13;;;;;;;4.80;2.13;;;;;;;-142.75;100.00;75967.97;5066037;28;20048;-61
2023/07/19 05:52:39;;;;;;;7.70;2.67;;;;;;;-142.75;100.00;75985.69;5066531;28;20032;-61
2023/07/19 05:55:06;;;;;;;5.82;2.05;;;;;;;-142.75;100.00;75973.88;5074807;28;20031;-60
2023/07/19 05:57:31;;;;;;;7.35;2.20;;;;;;;-142.75;100.00;75975.84;5086287;28;20024;-61
2023/07/19 06:00:06;;;;;;;7.85;2.00;;;;;;;-142.75;100.00;75950.28;5085959;28;20491;-61
2023/07/19 06:02:32;;;;;;;5.25;1.90;;;;;;;-142.75;100.00;75930.59;5084878;28;20494;-61
2023/07/19 06:04:57;;;;;;;7.60;2.17;;;;;;;-142.75;100.00;75912.88;5086017;28;20115;-61
2023/07/19 06:07:23;;;;;;;9.75;2.65;;;;;;;-142.75;100.00;75916.81;5085958;28;20024;-61
2023/07/19 06:09:49;;;;;;;5.93;2.10;;;;;;;-142.75;100.00;75897.13;5085716;28;20511;-61
2023/07/19 06:12:14;;;;;;;6.22;2.13;;;;;;;-142.75;100.00;75889.25;5086172;28;20233;-61
2023/07/19 06:14:39;;;;;;;6.57;2.30;;;;;;;-142.75;100.00;75895.16;5086459;28;20570;-59
2023/07/19 06:17:05;;;;;;;6.32;1.95;;;;;;;-142.75;100.00;75899.09;5086421;28;20107;-59
2023/07/19 06:19:31;;;;;;;6.70;2.10;;;;;;;-142.75;100.00;75881.38;5085774;28;20107;-56
2023/07/19 06:21:56;;;;;;;6.35;1.98;;;;;;;-142.75;100.00;75885.31;5082693;28;20107;-59
2023/07/19 06:24:21;;;;;;;5.75;2.00;;;;;;;-142.75;100.00;75893.19;5069900;28;20111;-59
2023/07/19 06:26:47;;;;;;;7.93;2.47;;;;;;;-142.75;100.00;75881.38;5077300;28;20102;-61
2023/07/19 06:29:12;;;;;;;4.45;2.00;;;;;;;-142.75;100.00;75877.44;5081847;28;20040;-60
2023/07/19 06:31:38;;;;;;;4.07;1.83;;;;;;;-142.75;100.00;75869.56;5073718;28;20055;-60
2023/07/19 06:34:03;;;;;;;9.90;2.72;;;;;;;-142.75;100.00;75869.56;5081215;28;20055;-60
2023/07/19 06:36:28;;;;;;;6.45;2.03;;;;;;;-142.75;100.00;75851.88;5089506;28;20577;-61
2023/07/19 06:38:54;;;;;;;8.43;2.20;;;;;;;-142.75;100.00;75855.81;5078246;28;20086;-60
2023/07/19 06:41:19;;;;;;;6.72;1.80;;;;;;;-142.75;100.00;75853.84;5071065;28;20036;-60
2023/07/19 06:43:44;;;;;;;7.20;2.35;;;;;;;-142.75;100.00;75859.72;5081243;28;20128;-60
2023/07/19 06:46:10;;;;;;;7.28;2.20;;;;;;;-142.75;100.00;75877.44;5084383;28;20031;-61
2023/07/19 06:48:35;;;;;;;4.85;2.38;;;;;;;-142.75;100.00;75859.72;5077602;28;20028;-61
2023/07/19 06:51:02;;;;;;;5.35;2.22;;;;;;;-142.75;100.00;75867.59;5081885;28;20024;-58
2023/07/19 06:53:28;;;;;;;6.15;2.40;;;;;;;-142.75;100.00;75861.69;5084861;28;20039;-60
2023/07/19 06:55:58;;;;;;;4.20;2.33;;;;;;;-142.75;100.00;75853.84;5079534;28;20020;-61
2023/07/19 06:58:23;;;;;;;6.03;1.98;;;;;;;-142.75;100.00;75853.84;5082095;28;20032;-60
2023/07/19 07:00:48;;;;;;;5.25;2.05;;;;;;;-142.75;100.00;75853.84;5083315;28;20031;-60
2023/07/19 07:03:14;;;;;;;5.68;1.98;;;;;;;-142.75;100.00;75853.84;5082904;28;20016;-60
2023/07/19 07:05:39;;;;;;;5.72;1.92;;;;;;;-142.75;100.00;75853.84;5085289;28;20043;-60
2023/07/19 07:08:04;;;;;;;9.02;2.00;;;;;;;-142.75;100.00;75875.47;5079820;28;20024;-56
2023/07/19 07:10:30;;;;;;;4.20;1.90;;;;;;;-142.75;100.00;75879.41;5083078;28;20020;-60
2023/07/19 07:12:55;;;;;;;4.75;1.73;;;;;;;-142.75;100.00;75873.50;5081405;28;20477;-60
2023/07/19 07:15:21;;;;;;;4.47;1.80;;;;;;;-142.75;100.00;75861.69;5082055;28;20083;-60
2023/07/19 07:17:48;;;;;;;6.10;1.85;;;;;;;-142.75;100.00;75847.94;5082742;28;20054;-59
2023/07/19 07:20:14;;;;;;;5.07;1.70;;;;;;;-142.75;100.00;75855.81;5080922;28;20023;-60
2023/07/19 07:22:39;;;;;;;3.38;1.48;;;;;;;-142.75;100.00;75822.34;5079076;28;20039;-60
2023/07/19 07:25:04;;;;;;;5.90;1.92;;;;;;;-142.75;100.00;75804.63;5069831;28;20060;-61
2023/07/19 07:27:30;;;;;;;4.50;1.60;;;;;;;-142.75;100.00;75802.66;5068445;28;20024;-60
2023/07/19 07:29:55;;;;;;;3.45;1.52;;;;;;;-142.75;100.00;75794.78;5069410;28;20111;-60
2023/07/19 07:32:21;;;;;;;5.43;1.63;;;;;;;-142.75;100.00;75790.84;5069334;28;20044;-60
2023/07/19 07:34:46;;;;;;;6.72;1.88;;;;;;;-142.75;100.00;75798.72;5068784;28;20020;-58
2023/07/19 07:37:12;;;;;;;5.93;1.58;;;;;;;-142.75;100.00;75810.53;5072797;28;20471;-58
2023/07/19 07:39:37;;;;;;;5.97;1.83;;;;;;;-142.75;100.00;75806.59;5089172;28;20680;-59
2023/07/19 07:42:03;;;;;;;4.30;1.90;;;;;;;-142.75;100.00;75806.59;5083171;28;20024;-58
2023/07/19 07:44:28;;;;;;;7.32;1.90;;;;;;;-142.75;100.00;75792.81;5075707;28;20115;-60
2023/07/19 07:46:53;;;;;;;4.65;1.58;;;;;;;-142.75;100.00;75802.66;5079278;28;20495;-60
2023/07/19 07:49:18;;;;;;;6.88;1.95;;;;;;;-142.75;100.00;75788.88;5069975;28;20031;-60
2023/07/19 07:51:44;;;;;;;5.05;1.90;;;;;;;-142.75;100.00;75806.59;5069673;28;20503;-61
2023/07/19 07:54:09;;;;;;;5.03;1.73;;;;;;;-142.75;100.00;75808.56;5069055;28;20025;-61
2023/07/19 07:56:34;;;;;;;5.65;1.60;;;;;;;-142.75;100.00;75828.25;5068711;28;20407;-58
2023/07/19 07:59:00;;;;;;;3.40;1.52;;;;;;;-142.75;100.00;75867.59;5068228;28;20035;-62
2023/07/19 08:01:26;;;;;;;5.28;1.30;;;;;;;-142.75;100.00;75861.69;5076040;28;20017;-59
2023/07/19 08:03:51;;;;;;;3.78;1.35;;;;;;;-142.75;100.00;75834.16;5070465;28;20107;-60
2023/07/19 08:06:16;;;;;;;3.55;1.50;;;;;;;-142.75;100.00;75781.00;5087999;28;20032;-60
2023/07/19 08:08:42;;;;;;;4.00;1.45;;;;;;;-142.75;100.00;75743.63;5073129;28;20153;-59
2023/07/19 08:11:09;;;;;;;3.40;1.40;;;;;;;-142.75;100.00;75692.44;5067949;28;20086;-60
2023/07/19 08:13:34;;;;;;;4.00;1.02;;;;;;;-142.75;100.00;75690.47;5068325;28;20399;-59
2023/07/19 08:16:00;;;;;;;4.20;1.30;;;;;;;-142.75;100.00;75702.28;5070553;28;20020;-60
2023/07/19 08:18:25;;;;;;;3.80;1.17;;;;;;;-142.75;100.00;75682.59;5072544;28;20119;-60
2023/07/19 08:20:52;;;;;;;3.38;1.33;;;;;;;-142.75;100.00;75692.44;5070636;28;20016;-60
2023/07/19 08:23:17;;;;;;;6.25;1.80;;;;;;;-142.75;100.00;75729.84;5068033;28;20036;-60
2023/07/19 08:25:42;;;;;;;3.05;1.58;;;;;;;-142.75;100.00;75739.69;5068192;28;20032;-60
2023/07/19 08:28:08;;;;;;;4.60;1.20;;;;;;;-142.75;100.00;75759.38;5072154;28;20028;-60
2023/07/19 08:30:33;;;;;;;4.80;1.40;;;;;;;-142.75;100.00;75779.03;5078627;28;20028;-61
2023/07/19 08:32:59;;;;;;;4.90;1.77;;;;;;;-142.75;100.00;75775.09;5088058;28;20445;-60
2023/07/19 08:35:24;;;;;;;5.82;1.60;;;;;;;-142.75;100.00;75773.13;5084421;28;20032;-60
2023/07/19 08:37:49;;;;;;;7.38;1.45;;;;;;;-142.75;100.00;75759.38;5087965;28;20408;-61
2023/07/19 08:40:16;;;;;;;4.93;1.50;;;;;;;-142.75;100.00;75749.53;5084146;28;20028;-59
2023/07/19 08:42:42;;;;;;;5.05;1.58;;;;;;;-142.75;100.00;75708.19;5067688;28;20027;-61
2023/07/19 08:45:10;;;;;;;6.35;1.63;;;;;;;-142.75;100.00;75678.66;5068130;28;20106;-61
2023/07/19 08:47:38;;;;;;;4.38;1.42;;;;;;;-142.75;100.00;75639.31;5067093;28;20160;-61
2023/07/19 08:50:10;;;;;;;4.75;1.63;;;;;;;-142.75;100.00;75605.84;5067225;28;20550;-60
2023/07/19 08:52:36;;;;;;;6.85;1.95;;;;;;;-142.75;100.00;75588.16;5067423;28;20028;-61
2023/07/19 08:55:02;;;;;;;5.47;1.48;;;;;;;-142.75;100.00;75621.59;5067555;28;20027;-61
2023/07/19 08:57:28;;;;;;;3.08;1.23;;;;;;;-142.75;100.00;75635.38;5067691;28;20032;-61
2023/07/19 08:59:54;;;;;;;3.80;1.30;;;;;;;-142.75;100.00;75664.91;5066130;28;20590;-61
2023/07/19 09:02:19;;;;;;;3.90;1.25;;;;;;;-142.75;100.00;75706.22;5069219;28;20020;-61
2023/07/19 09:05:07;;;;;;;6.78;1.60;;;;;;;-142.75;100.00;75692.44;5067605;28;20070;-61
2023/07/19 09:07:33;;;;;;;6.07;1.80;;;;;;;-142.75;100.00;75696.38;5068552;28;20031;-61
2023/07/19 09:09:58;;;;;;;4.80;1.50;;;;;;;-142.75;100.00;75716.06;5067889;28;20024;-59
2023/07/19 09:12:24;;;;;;;8.98;1.95;;;;;;;-142.75;100.00;75727.88;5067762;28;20400;-61
2023/07/19 09:14:49;;;;;;;5.80;1.23;;;;;;;-142.75;100.00;75716.06;5068284;28;20608;-60
2023/07/19 09:17:15;;;;;;;5.50;1.33;;;;;;;-142.75;100.00;75712.13;5072832;28;20031;-61
2023/07/19 09:19:43;;;;;;;6.00;1.48;;;;;;;-142.75;100.00;75710.16;5086836;28;20107;-60
2023/07/19 09:22:09;;;;;;;3.72;1.52;;;;;;;-142.75;100.00;75716.06;5086421;28;20425;-60
2023/07/19 09:24:35;;;;;;;3.15;1.20;;;;;;;-142.75;100.00;75716.06;5085822;28;20487;-61
2023/07/19 09:27:00;;;;;;;7.32;1.70;;;;;;;-142.75;100.00;75721.97;5088331;28;20085;-58
2023/07/19 09:29:30;;;;;;;6.60;1.55;;;;;;;-142.75;100.00;75700.31;5087629;28;20027;-58
2023/07/19 09:32:00;;;;;;;5.13;1.52;;;;;;;-142.75;100.00;75723.94;5088188;28;20098;-57
2023/07/19 09:34:36;;;;;;;5.07;1.85;;;;;;;-142.75;100.00;75710.16;5081760;28;20020;-57
2023/07/19 09:37:02;;;;;;;4.65;1.55;;;;;;;-142.75;100.00;75710.16;5068855;28;20038;-57
2023/07/19 09:39:34;;;;;;;4.60;1.38;;;;;;;-142.75;100.00;75700.31;5067131;28;20421;-56
2023/07/19 09:42:01;;;;;;;3.88;1.55;;;;;;;-142.75;100.00;75696.38;5069567;28;20038;-54
2023/07/19 09:44:27;;;;;;;5.68;1.85;;;;;;;-142.75;100.00;75700.31;5066881;28;20028;-54
2023/07/19 09:46:54;;;;;;;13.32;2.03;;;;;;;-142.75;100.00;75718.03;5067028;28;20024;-52
2023/07/19 09:49:20;;;;;;;3.75;1.75;;;;;;;-142.75;100.00;75745.59;5067214;28;20025;-57
2023/07/19 09:51:47;;;;;;;5.32;1.38;;;;;;;-142.75;100.00;75767.22;5067811;28;20033;-57
2023/07/19 09:54:13;;;;;;;5.50;1.50;;;;;;;-142.75;100.00;75771.16;5067707;28;20024;-52
2023/07/19 09:56:40;;;;;;;4.45;1.42;;;;;;;-142.75;100.00;75818.41;5067740;28;20081;-52
2023/07/19 09:59:10;;;;;;;5.97;1.80;;;;;;;-142.75;100.00;75826.28;5070672;28;20487;-57
2023/07/19 10:01:36;;;;;;;4.45;1.98;;;;;;;-142.75;100.00;75830.22;5071457;28;20039;-59
2023/07/19 10:04:21;;;;;;;4.95;1.50;;;;;;;-142.75;100.00;75810.53;5071507;28;20041;-53
2023/07/19 10:06:46;;;;;;;4.07;1.60;;;;;;;-142.75;100.00;75838.09;5071341;28;20507;-56
2023/07/19 10:09:29;;;;;;;4.75;1.75;;;;;;;-142.75;100.00;75826.28;5071304;28;20052;-57
2023/07/19 10:12:05;;;;;;;4.65;1.55;;;;;;;-142.75;100.00;75806.59;5073622;28;20031;-52
2023/07/19 10:14:32;;;;;;;5.68;2.10;;;;;;;-142.75;100.00;75814.47;5076822;28;20020;-56
2023/07/19 10:16:59;;;;;;;8.60;2.45;;;;;;;-142.75;100.00;75802.66;5071926;28;20229;-53
2023/07/19 10:19:24;;;;;;;5.97;1.55;;;;;;;-142.75;100.00;75800.69;5070884;28;20032;-52
2023/07/19 10:22:03;;;;;;;4.20;1.95;;;;;;;-142.75;100.00;75790.84;5071322;28;20028;-57
2023/07/19 10:24:29;;;;;;;5.65;1.80;;;;;;;-142.75;100.00;75790.84;5071470;28;20103;-54
2023/07/19 10:26:55;;;;;;;5.13;1.67;;;;;;;-142.75;100.00;75784.94;5071388;28;20430;-55
2023/07/19 10:29:24;;;;;;;7.57;2.05;;;;;;;-142.75;100.00;75788.88;5071292;28;20017;-50
2023/07/19 10:31:50;;;;;;;7.95;1.88;;;;;;;-142.75;100.00;75802.66;5079786;28;20024;-54
2023/07/19 10:34:15;;;;;;;7.63;2.13;;;;;;;-142.75;100.00;75812.50;5074094;28;20024;-52
2023/07/19 10:36:46;;;;;;;5.65;1.85;;;;;;;-142.75;100.00;75784.94;5074629;28;20051;-53
2023/07/19 10:39:12;;;;;;;4.75;1.80;;;;;;;-142.75;100.00;75761.34;5079103;28;20102;-57
2023/07/19 10:41:37;;;;;;;5.88;1.50;;;;;;;-142.75;100.00;75767.22;5078995;28;20123;-56
2023/07/19 10:44:02;;;;;;;5.88;1.60;;;;;;;-142.75;100.00;75779.03;5072389;28;20052;-56
2023/07/19 10:46:31;;;;;;;6.90;1.90;;;;;;;-142.75;100.00;75769.19;5071408;28;20036;-57
2023/07/19 10:48:58;;;;;;;4.28;1.40;;;;;;;-142.75;100.00;75763.28;5070643;28;20035;-53
2023/07/19 10:51:24;;;;;;;5.63;2.53;;;;;;;-142.75;100.00;75767.22;5070504;28;20032;-56
2023/07/19 10:53:56;;;;;;;4.82;1.40;;;;;;;-142.75;100.00;75720.00;5089610;28;20407;-56
2023/07/19 10:56:22;;;;;;;3.65;1.63;;;;;;;-142.75;100.00;75727.88;5070755;28;20036;-54
2023/07/19 10:58:47;;;;;;;7.95;2.08;;;;;;;-142.75;100.00;75729.84;5070587;28;20450;-57
2023/07/19 11:01:13;;;;;;;6.78;1.98;;;;;;;-142.75;100.00;75706.22;5068911;28;20021;-53
2023/07/19 11:03:39;;;;;;;5.68;2.58;;;;;;;-142.75;100.00;75716.06;5070922;28;20028;-54